createdAt,value
2019-02-20T00:02:22.708Z,-2.70
2019-02-20T00:04:53.152Z,-2.69
2019-02-20T00:07:23.791Z,-2.79
2019-02-20T00:09:54.644Z,-2.77
2019-02-20T00:12:25.399Z,-2.82
2019-02-20T00:14:56.169Z,-2.72
2019-02-20T00:17:26.805Z,-2.73
2019-02-20T00:19:57.689Z,-2.70
2019-02-20T00:22:28.435Z,-2.77
2019-02-20T00:24:59.184Z,-2.70
2019-02-20T00:27:29.842Z,-2.85
2019-02-20T00:30:00.691Z,-2.79
2019-02-20T00:32:31.448Z,-2.78
2019-02-20T00:35:02.202Z,-2.82
2019-02-20T00:37:33.959Z,-2.77
2019-02-20T00:40:06.467Z,-2.80
2019-02-20T00:42:36.902Z,-2.84
2019-02-20T00:45:30.359Z,-2.99
2019-02-20T00:48:08.703Z,-2.90
2019-02-20T00:50:40.986Z,-3.00
2019-02-20T00:53:22.274Z,-2.94
2019-02-20T00:55:53.038Z,-2.87
2019-02-20T00:58:23.881Z,-2.84
2019-02-20T01:00:54.620Z,-2.94
2019-02-20T01:03:25.296Z,-2.95
2019-02-20T01:05:56.128Z,-2.94
2019-02-20T01:08:26.900Z,-3.05
2019-02-20T01:10:57.655Z,-3.04
2019-02-20T01:13:28.510Z,-3.05
2019-02-20T01:15:59.372Z,-3.04
2019-02-20T01:18:30.247Z,-3.04
2019-02-20T01:21:01.060Z,-3.09
2019-02-20T01:23:31.932Z,-3.08
2019-02-20T01:26:02.685Z,-3.20
2019-02-20T01:28:33.342Z,-3.19
2019-02-20T01:31:04.194Z,-3.30
2019-02-20T01:33:34.948Z,-3.27
2019-02-20T01:36:05.703Z,-3.23
2019-02-20T01:38:37.478Z,-3.19
2019-02-20T01:41:07.908Z,-3.17
2019-02-20T01:43:38.782Z,-3.13
2019-02-20T01:46:09.725Z,-3.17
2019-02-20T01:48:40.494Z,-3.15
2019-02-20T01:51:11.336Z,-3.17
2019-02-20T01:53:42.205Z,-3.17
2019-02-20T01:56:12.943Z,-3.22
2019-02-20T01:58:43.613Z,-3.18
2019-02-20T02:01:14.469Z,-3.22
2019-02-20T02:03:45.103Z,-3.29
2019-02-20T02:06:15.856Z,-3.27
2019-02-20T02:08:46.525Z,-3.32
2019-02-20T02:11:17.367Z,-3.23
2019-02-20T02:13:48.135Z,-3.22
2019-02-20T02:16:18.890Z,-3.29
2019-02-20T02:18:49.744Z,-3.26
2019-02-20T02:21:20.585Z,-3.29
2019-02-20T02:23:51.362Z,-3.28
2019-02-20T02:26:22.008Z,-3.32
2019-02-20T02:28:51.863Z,-3.30
2019-02-20T02:31:22.288Z,-3.29
2019-02-20T02:33:52.246Z,-3.31
2019-02-20T02:36:22.778Z,-3.36
2019-02-20T02:38:54.550Z,-3.34
2019-02-20T02:41:25.302Z,-3.27
2019-02-20T02:43:55.962Z,-3.30
2019-02-20T02:46:27.629Z,-3.26
2019-02-20T02:48:58.379Z,-3.34
2019-02-20T02:51:29.123Z,-3.32
2019-02-20T02:53:59.873Z,-3.33
2019-02-20T02:56:30.542Z,-3.45
2019-02-20T02:59:01.279Z,-3.41
2019-02-20T03:01:32.137Z,-3.47
2019-02-20T03:04:02.912Z,-3.47
2019-02-20T03:06:33.559Z,-3.61
2019-02-20T03:09:05.215Z,-3.46
2019-02-20T03:11:35.679Z,-3.47
2019-02-20T03:14:06.541Z,-3.55
2019-02-20T03:16:37.390Z,-3.32
2019-02-20T03:19:08.146Z,-3.39
2019-02-20T03:21:38.801Z,-3.34
2019-02-20T03:24:09.633Z,-3.34
2019-02-20T03:26:40.289Z,-3.37
2019-02-20T03:29:11.061Z,-3.36
2019-02-20T03:31:41.710Z,-3.49
2019-02-20T03:34:12.453Z,-3.37
2019-02-20T03:36:43.217Z,-3.37
2019-02-20T03:39:14.996Z,-3.46
2019-02-20T03:41:45.757Z,-3.40
2019-02-20T03:44:16.380Z,-3.54
2019-02-20T03:46:47.247Z,-3.70
2019-02-20T03:49:18.009Z,-3.62
2019-02-20T03:51:48.745Z,-3.52
2019-02-20T03:54:19.413Z,-3.41
2019-02-20T03:56:50.257Z,-3.49
2019-02-20T03:59:21.031Z,-3.47
2019-02-20T04:01:51.778Z,-3.55
2019-02-20T04:04:22.634Z,-3.59
2019-02-20T04:06:53.491Z,-3.51
2019-02-20T04:09:24.247Z,-3.60
2019-02-20T04:11:54.904Z,-3.77
2019-02-20T04:14:25.751Z,-3.45
2019-02-20T04:16:56.508Z,-3.36
2019-02-20T04:19:27.258Z,-3.16
2019-02-20T04:21:58.100Z,-2.95
2019-02-20T04:24:28.975Z,-2.85
2019-02-20T04:26:59.715Z,-2.73
2019-02-20T04:29:30.376Z,-2.68
2019-02-20T04:32:01.240Z,-2.66
2019-02-20T04:34:31.987Z,-2.59
2019-02-20T04:37:02.724Z,-2.62
2019-02-20T04:39:34.317Z,-2.60
2019-02-20T04:42:05.052Z,-2.60
2019-02-20T04:44:35.720Z,-2.65
2019-02-20T04:47:06.662Z,-2.65
2019-02-20T04:49:37.318Z,-2.64
2019-02-20T04:52:08.084Z,-2.65
2019-02-20T04:54:38.940Z,-2.61
2019-02-20T04:57:09.796Z,-2.63
2019-02-20T04:59:40.429Z,-2.53
2019-02-20T05:02:10.509Z,-2.51
2019-02-20T05:04:41.017Z,-2.34
2019-02-20T05:07:11.687Z,-2.26
2019-02-20T05:09:42.544Z,-2.24
2019-02-20T05:12:14.731Z,-2.19
2019-02-20T05:14:45.479Z,-2.06
2019-02-20T05:17:16.132Z,-2.00
2019-02-20T05:19:46.996Z,-1.88
2019-02-20T05:22:17.843Z,-1.86
2019-02-20T05:24:48.480Z,-1.80
2019-02-20T05:27:18.661Z,-1.76
2019-02-20T05:29:49.187Z,-1.66
2019-02-20T05:32:19.139Z,-1.65
2019-02-20T05:34:49.656Z,-1.50
2019-02-20T05:37:20.410Z,-1.52
2019-02-20T05:39:52.197Z,-1.44
2019-02-20T05:42:22.637Z,-1.50
2019-02-20T05:44:53.282Z,-1.43
2019-02-20T05:47:24.345Z,-1.40
2019-02-20T05:49:55.112Z,-1.18
2019-02-20T05:52:25.870Z,-1.02
2019-02-20T05:54:56.520Z,-0.86
2019-02-20T05:57:27.400Z,-0.81
2019-02-20T05:59:58.230Z,-0.69
2019-02-20T06:02:29.091Z,-0.59
2019-02-20T06:04:59.950Z,-0.64
2019-02-20T06:07:30.700Z,-0.74
2019-02-20T06:10:01.453Z,-0.82
2019-02-20T06:12:33.623Z,-0.71
2019-02-20T06:15:05.588Z,-0.46
2019-02-20T06:17:36.167Z,-0.34
2019-02-20T06:20:09.281Z,-0.38
2019-02-20T06:22:39.909Z,-0.35
2019-02-20T06:25:10.667Z,-0.12
2019-02-20T06:27:41.422Z,-0.01
2019-02-20T06:30:12.900Z,-0.01
2019-02-20T06:32:43.658Z,0.16
2019-02-20T06:35:14.291Z,0.30
2019-02-20T06:37:44.371Z,0.40
2019-02-20T06:40:15.814Z,0.59
2019-02-20T06:42:46.551Z,0.35
2019-02-20T06:45:17.324Z,0.35
2019-02-20T06:47:48.278Z,0.39
2019-02-20T06:50:19.035Z,0.48
2019-02-20T06:52:49.802Z,0.50
2019-02-20T06:55:20.321Z,0.44
2019-02-20T06:57:51.181Z,0.62
2019-02-20T07:00:21.947Z,0.87
2019-02-20T07:02:52.700Z,1.15
2019-02-20T07:05:37.979Z,1.54
2019-02-20T07:08:29.492Z,1.39
2019-02-20T07:11:18.433Z,1.50
2019-02-20T07:14:08.642Z,1.63
2019-02-20T07:16:45.410Z,1.93
2019-02-20T07:19:21.912Z,2.36
2019-02-20T07:21:58.581Z,2.76
2019-02-20T07:24:41.313Z,2.41
2019-02-20T07:27:26.997Z,2.65
2019-02-20T07:30:02.723Z,2.62
2019-02-20T07:32:33.417Z,2.90
2019-02-20T07:35:05.194Z,3.16
2019-02-20T07:37:35.544Z,3.53
2019-02-20T07:40:07.566Z,3.11
2019-02-20T07:42:39.173Z,2.66
2019-02-20T07:45:10.974Z,2.21
2019-02-20T07:47:41.829Z,2.24
2019-02-20T07:50:13.374Z,2.41
2019-02-20T07:52:43.766Z,2.42
2019-02-20T07:55:14.598Z,2.43
2019-02-20T07:57:46.766Z,2.30
2019-02-20T08:00:17.622Z,2.31
2019-02-20T08:02:48.494Z,2.29
2019-02-20T08:05:19.140Z,2.22
2019-02-20T08:07:49.780Z,2.29
2019-02-20T08:10:20.758Z,2.49
2019-02-20T16:32:09.336Z,5.16
2019-02-20T16:34:39.790Z,5.05
2019-02-20T16:37:10.544Z,5.03
2019-02-20T16:39:41.195Z,5.03
2019-02-20T16:42:12.459Z,5.00
2019-02-20T16:44:43.214Z,4.97
2019-02-20T16:47:13.660Z,4.94
2019-02-20T16:49:44.311Z,4.93
2019-02-20T16:52:15.473Z,4.92
2019-02-20T16:54:46.772Z,4.90
2019-02-20T16:57:17.185Z,4.95
2019-02-20T16:59:48.045Z,4.96
2019-02-20T17:02:18.796Z,4.95
2019-02-20T17:04:49.551Z,4.95
2019-02-20T17:07:19.625Z,4.95
2019-02-20T17:09:51.726Z,4.97
2019-02-20T17:12:22.223Z,5.00
2019-02-20T17:14:53.287Z,4.99
2019-02-20T17:17:23.714Z,4.95
2019-02-20T17:19:54.688Z,4.94
2019-02-20T17:22:25.849Z,4.90
2019-02-20T17:24:56.807Z,4.95
2019-02-20T17:27:26.666Z,5.00
2019-02-20T17:29:57.293Z,4.92
2019-02-20T17:32:27.151Z,4.89
2019-02-20T17:34:57.681Z,4.91
2019-02-20T17:37:29.249Z,4.83
2019-02-20T17:39:59.107Z,4.84
2019-02-20T17:42:29.614Z,4.80
2019-02-20T17:45:00.470Z,4.77
2019-02-20T17:47:31.139Z,4.71
2019-02-20T17:50:02.201Z,4.70
2019-02-20T17:52:33.161Z,4.56
2019-02-20T17:55:04.635Z,4.65
2019-02-20T17:57:36.085Z,4.54
2019-02-20T18:00:09.817Z,4.46
2019-02-20T18:02:40.278Z,4.38
2019-02-20T18:05:11.019Z,4.37
2019-02-20T18:07:48.587Z,4.40
2019-02-20T18:10:14.063Z,4.36
2019-02-20T18:12:44.412Z,4.29
2019-02-20T18:15:15.141Z,4.18
2019-02-20T18:17:45.793Z,4.03
2019-02-20T18:20:15.872Z,3.93
2019-02-20T18:22:46.399Z,3.92
2019-02-20T18:25:16.249Z,3.96
2019-02-20T18:27:46.786Z,3.95
2019-02-20T18:30:17.546Z,4.04
2019-02-20T18:32:48.196Z,4.02
2019-02-20T18:35:19.667Z,3.93
2019-02-20T18:37:50.003Z,3.78
2019-02-20T18:40:20.748Z,3.75
2019-02-20T18:42:51.388Z,3.66
2019-02-20T18:45:22.244Z,3.63
2019-02-20T18:47:53.131Z,3.62
2019-02-20T18:50:23.872Z,3.55
2019-02-20T18:52:54.506Z,3.54
2019-02-20T18:55:25.397Z,3.57
2019-02-20T18:57:56.115Z,3.54
2019-02-20T19:00:26.888Z,3.54
2019-02-20T19:02:59.869Z,3.50
2019-02-20T19:05:29.740Z,3.50
2019-02-20T19:08:00.379Z,3.47
2019-02-20T19:10:42.185Z,3.52
2019-02-20T19:13:24.603Z,3.49
2019-02-20T19:16:04.452Z,3.49
2019-02-20T19:19:02.132Z,3.44
2019-02-20T19:21:42.933Z,3.48
2019-02-20T19:24:22.410Z,3.48
2019-02-20T19:27:14.568Z,3.39
2019-02-20T19:29:51.324Z,3.34
2019-02-20T19:32:46.119Z,3.30
2019-02-20T19:35:34.594Z,3.25
2019-02-20T19:38:30.904Z,3.22
2019-02-20T19:41:17.614Z,3.24
2019-02-20T19:43:57.688Z,3.20
2019-02-20T19:46:40.095Z,3.20
2019-02-20T19:49:19.331Z,3.20
2019-02-20T19:52:05.216Z,3.30
2019-02-20T19:54:53.980Z,3.27
2019-02-20T19:57:39.852Z,3.25
2019-02-20T20:00:36.802Z,3.23
2019-02-20T20:03:13.721Z,3.27
2019-02-20T20:05:56.582Z,3.25
2019-02-20T20:08:42.384Z,3.21
2019-02-20T20:11:33.108Z,3.25
2019-02-20T20:14:18.891Z,3.24
2019-02-20T20:17:09.279Z,3.32
2019-02-20T20:20:01.472Z,3.31
2019-02-20T20:22:46.890Z,3.36
2019-02-20T20:25:24.556Z,3.38
2019-02-20T20:28:10.522Z,3.33
2019-02-20T20:30:49.980Z,3.20
2019-02-20T20:33:49.568Z,3.38
2019-02-20T20:36:38.594Z,3.40
2019-02-20T20:39:12.617Z,3.34
2019-02-20T20:42:01.376Z,3.30
2019-02-20T20:44:51.966Z,3.28
2019-02-20T20:47:48.497Z,3.28
2019-02-20T20:50:51.467Z,3.22
2019-02-20T20:53:41.945Z,3.07
2019-02-20T20:56:45.134Z,2.98
2019-02-20T20:59:24.668Z,2.92
2019-02-20T21:02:10.456Z,2.84
2019-02-20T21:04:59.432Z,2.79
2019-02-20T21:07:41.946Z,2.80
2019-02-20T21:10:18.661Z,2.81
2019-02-20T21:13:26.103Z,2.75
2019-02-20T21:16:22.835Z,2.73
2019-02-20T21:19:08.420Z,2.75
2019-02-20T21:22:03.724Z,2.71
2019-02-20T21:25:11.293Z,2.71
2019-02-20T21:28:02.909Z,2.75
2019-02-20T21:30:51.649Z,2.68
2019-02-20T21:33:43.484Z,2.68
2019-02-20T21:36:23.249Z,2.57
2019-02-20T21:39:13.951Z,2.66
2019-02-20T21:42:02.409Z,2.66
2019-02-20T21:44:38.660Z,2.62
2019-02-20T21:47:30.693Z,2.72
2019-02-20T21:50:10.751Z,2.68
2019-02-20T21:52:51.187Z,2.63
2019-02-20T21:55:43.073Z,2.54
2019-02-20T21:58:41.309Z,2.47
2019-02-20T22:01:27.028Z,2.42
2019-02-20T22:04:21.868Z,2.50
2019-02-20T22:07:10.641Z,2.49
2019-02-20T22:10:01.525Z,2.67
2019-02-20T22:12:50.998Z,2.59
2019-02-20T22:15:40.565Z,2.65
2019-02-20T22:18:32.713Z,2.58
2019-02-20T22:21:32.205Z,2.48
2019-02-20T22:24:08.483Z,2.39
2019-02-20T22:26:57.238Z,2.37
2019-02-20T22:29:49.728Z,2.33
2019-02-20T22:32:20.513Z,2.34
2019-02-20T22:35:03.129Z,2.32
2019-02-20T22:37:48.921Z,2.26
2019-02-20T22:40:43.729Z,2.23
2019-02-20T22:43:29.820Z,2.22
2019-02-20T22:46:03.625Z,2.24
2019-02-20T22:48:53.932Z,2.20
2019-02-20T22:51:39.104Z,2.19
2019-02-20T22:54:18.859Z,2.18
2019-02-20T22:57:10.572Z,2.20
2019-02-20T22:59:47.061Z,2.14
2019-02-20T23:02:23.745Z,2.14
2019-02-20T23:04:57.842Z,2.08
2019-02-20T23:07:31.597Z,2.05
2019-02-20T23:10:25.243Z,2.03
2019-02-20T23:13:17.184Z,2.05
2019-02-20T23:15:48.039Z,2.03
2019-02-20T23:18:18.679Z,2.07
2019-02-20T23:20:48.641Z,2.10
2019-02-20T23:23:19.177Z,2.10
2019-02-20T23:25:49.930Z,2.11
2019-02-20T23:28:20.580Z,2.10
2019-02-20T23:30:51.439Z,2.14
2019-02-20T23:33:22.178Z,2.11
2019-02-20T23:35:52.828Z,2.13
2019-02-20T23:38:22.802Z,2.15
2019-02-20T23:40:54.335Z,2.11
2019-02-20T23:43:25.309Z,2.04
2019-02-20T23:45:55.959Z,2.10
2019-02-20T23:48:26.611Z,2.08
2019-02-20T23:50:57.470Z,2.07
2019-02-20T23:53:28.239Z,2.08
2019-02-20T23:55:58.976Z,2.10
2019-02-20T23:58:29.629Z,2.13
